Cosco Glory — VRIR7 — position and weather

sailwx.info

Track history (hours):
 
Tides and Currents Weather Stations Pressure Air Temp Water Temp Dewpoint Dewpoint Depression Visibility Wind Speed Wind Dir Waves Ship Positions

Cosco Glory

Last reported at 2018-Feb-21 09:00 UTC. Time now 2018-Feb-21 09:10 UTC.
Position N 36°57' W 076°20'.

Length 366 m; draft 13.1 m.

Type: Ship (hazmat cat D). MMSI: 477795300.

Date/timePositionNaut miles runAvg speedWind from/ knotsBaromVisibWave heightAir tempDewpointWater temp
2018-Feb-21 09:00N 36°57' W 076°20'3 6.8
2018-Feb-21 08:30N 36°60' W 076°18'511.1
2018-Feb-21 08:00N 36°60' W 076°11'612.5
2018-Feb-21 07:30N 36°58' W 076°04'611.2
2018-Feb-21 07:00N 36°56' W 075°57'5 9.7
2018-Feb-21 06:30N 36°53' W 075°53'5 9.7
2018-Feb-21 06:00N 36°50' W 075°48'5 9.5
2018-Feb-21 05:30N 36°49' W 075°42'133 6.9
2018-Feb-20 10:16N 38°40' W 074°10'410.7
2018-Feb-20 09:54N 38°44' W 074°09'510.7
2018-Feb-20 09:27N 38°49' W 074°07'3210.7
2018-Feb-20 06:30N 39°19' W 073°56'610.5
2018-Feb-20 05:55N 39°25' W 073°53'1010.1
2018-Feb-20 04:54N 39°35' W 073°53'410.2
2018-Feb-20 04:29N 39°40' W 073°52'510.3
2018-Feb-20 03:59N 39°45' W 073°52'610.4
2018-Feb-20 03:25N 39°51' W 073°52'1110.7
2018-Feb-20 02:24N 40°01' W 073°50'1810.2
2018-Feb-20 00:35N 40°20' W 073°49'1 9.7
2018-Feb-20 00:27N 40°21' W 073°49'4 9.3
2018-Feb-19 23:59N 40°25' W 073°48'4 7.2
2018-Feb-19 23:30N 40°28' W 073°52'5 9.8
2018-Feb-19 23:00N 40°30' W 073°57'611.8
2018-Feb-19 22:30N 40°35' W 074°02'5 9.5
2018-Feb-19 22:01N 40°39' W 074°05'2 4.9
2018-Feb-19 21:30N 40°39' W 074°08'2 3.2
2018-Feb-19 21:00N 40°40' W 074°08'1 1.7
2018-Feb-19 20:30N 40°41' W 074°09'0 0.0
2018-Feb-19 20:00N 40°41' W 074°09'0 0.0
2018-Feb-19 19:27N 40°41' W 074°09'0 0.0
2018-Feb-19 19:00N 40°41' W 074°09'0 0.0
2018-Feb-19 18:30N 40°41' W 074°09'0 0.0
2018-Feb-19 18:00N 40°41' W 074°09'0 0.0
2018-Feb-19 17:30N 40°41' W 074°09'0 0.0
2018-Feb-19 17:00N 40°41' W 074°09'0 0.0
2018-Feb-19 16:30N 40°41' W 074°09'0 0.0
2018-Feb-19 16:00N 40°41' W 074°09'0 0.0
2018-Feb-19 15:30N 40°41' W 074°09'0 0.0
2018-Feb-19 14:57N 40°41' W 074°09'0 0.0
2018-Feb-19 14:30N 40°41' W 074°09'0 0.0
2018-Feb-19 14:00N 40°41' W 074°09'0 0.1
2018-Feb-19 13:29N 40°41' W 074°09'0 0.0
2018-Feb-19 12:59N 40°41' W 074°09'0 0.0
2018-Feb-19 12:29N 40°41' W 074°09'0 0.0
2018-Feb-19 11:59N 40°41' W 074°09'0 0.0
2018-Feb-19 11:29N 40°41' W 074°09'0 0.0
2018-Feb-19 10:59N 40°41' W 074°09'0 0.0
2018-Feb-19 10:29N 40°41' W 074°09'0 0.0
2018-Feb-19 09:59N 40°41' W 074°09'0 0.0
2018-Feb-19 09:28N 40°41' W 074°09'0 0.0
2018-Feb-19 08:59N 40°41' W 074°09'0 0.0
2018-Feb-19 08:23N 40°41' W 074°09'0 0.0
2018-Feb-19 07:58N 40°41' W 074°09'0 0.0
2018-Feb-19 07:29N 40°41' W 074°09'0 0.0
2018-Feb-19 06:58N 40°41' W 074°09'0 0.0
2018-Feb-19 06:26N 40°41' W 074°09'0 0.0
2018-Feb-19 05:59N 40°41' W 074°09'0 0.0
2018-Feb-19 05:28N 40°41' W 074°09'0 0.0
2018-Feb-19 04:59N 40°41' W 074°09'0 0.0
2018-Feb-19 04:29N 40°41' W 074°09'0 0.0
2018-Feb-19 03:59N 40°41' W 074°09'0 0.0
2018-Feb-19 03:29N 40°41' W 074°09'0 0.0
2018-Feb-19 02:55N 40°41' W 074°09'0 0.0
2018-Feb-19 02:29N 40°41' W 074°09'0 0.0
2018-Feb-19 01:55N 40°41' W 074°09'0 0.0
2018-Feb-19 01:29N 40°41' W 074°09'0 0.0
2018-Feb-19 00:58N 40°41' W 074°09'0 0.0
2018-Feb-19 00:29N 40°41' W 074°09'0 0.0
2018-Feb-18 23:59N 40°41' W 074°09'0 0.0
2018-Feb-18 23:29N 40°41' W 074°09'0 0.0
2018-Feb-18 22:59N 40°41' W 074°09'0 0.0
2018-Feb-18 22:28N 40°41' W 074°09'0 0.0
2018-Feb-18 21:58N 40°41' W 074°09'0 0.0
2018-Feb-18 21:29N 40°41' W 074°09'0 0.0
2018-Feb-18 20:58N 40°41' W 074°09'0 0.0
2018-Feb-18 20:29N 40°41' W 074°09'0 0.0
2018-Feb-18 19:52N 40°41' W 074°09'0 0.0
2018-Feb-18 19:26N 40°41' W 074°09'0 0.0
2018-Feb-18 18:55N 40°41' W 074°09'0 0.0
2018-Feb-18 18:29N 40°41' W 074°09'0 0.0
2018-Feb-18 17:59N 40°41' W 074°09'0 0.0
2018-Feb-18 17:29N 40°41' W 074°09'0 0.0
2018-Feb-18 16:58N 40°41' W 074°09'0 0.0
2018-Feb-18 16:29N 40°41' W 074°09'0 0.0
2018-Feb-18 15:59N 40°41' W 074°09'0 0.0
2018-Feb-18 15:29N 40°41' W 074°09'0 0.0
2018-Feb-18 14:58N 40°41' W 074°09'0 0.0
2018-Feb-18 14:26N 40°41' W 074°09'0 0.0
2018-Feb-18 13:59N 40°41' W 074°09'0 0.0
2018-Feb-18 13:29N 40°41' W 074°09'0 0.0
2018-Feb-18 12:58N 40°41' W 074°09'0 0.0
2018-Feb-18 12:29N 40°41' W 074°09'0 0.0
2018-Feb-18 11:55N 40°41' W 074°09'0 0.0
2018-Feb-18 11:29N 40°41' W 074°09'0 0.0
2018-Feb-18 10:59N 40°41' W 074°09'0 0.0
2018-Feb-18 10:29N 40°41' W 074°09'0 0.4
2018-Feb-18 10:01N 40°41' W 074°09'2 3.0
2018-Feb-18 09:30N 40°39' W 074°09'1 3.0
2018-Feb-18 09:00N 40°39' W 074°07'2 5.0
2018-Feb-18 08:30N 40°39' W 074°04'3 6.6
2018-Feb-18 08:01N 40°36' W 074°02'611.8
2018-Feb-18 07:30N 40°31' W 073°58'713.3
2018-Feb-18 07:00N 40°27' W 073°51'611.4
2018-Feb-18 06:30N 40°22' W 073°47'1 1.1
2018-Feb-18 05:59N 40°23' W 073°47'4 8.2
2018-Feb-18 05:29N 40°19' W 073°46'5 9.8
2018-Feb-18 04:58N 40°14' W 073°46'5 9.7
2018-Feb-18 04:28N 40°09' W 073°45'35715.9
2018-Feb-17 06:00N 34°12' W 073°30'22819.0 010 / 251019.0 5.4 19.011.825.0
2018-Feb-16 18:00N 30°24' W 073°24'71419.8 260 / 231022.010.8 25.020.526.0
2018-Feb-15 06:00N 18°36' W 075°06'25821.5 050 / 281019.0 5.4 25.018.830.0
2018-Feb-14 18:00N 14°42' W 077°00'21117.6 090 / 321017.0 5.4 27.019.330.0
2018-Feb-14 06:00N 11°36' W 078°42'14018.7 080 / 361014.0 5.4 26.019.930.0
2018-Feb-13 22:28N 09°32' W 079°50'510.1
2018-Feb-13 21:57N 09°29' W 079°53'1 3.2
2018-Feb-13 21:30N 09°28' W 079°54'4 8.0
2018-Feb-13 21:00N 09°24' W 079°55'4 8.6
2018-Feb-13 20:30N 09°19' W 079°55'3 5.4
2018-Feb-13 20:00N 09°17' W 079°55'0 0.4
2018-Feb-13 19:30N 09°17' W 079°55'0 0.5
2018-Feb-13 19:00N 09°16' W 079°55'0 0.0
2018-Feb-13 18:30N 09°16' W 079°55'0 0.5
2018-Feb-13 18:00N 09°16' W 079°55'0 0.0
2018-Feb-13 17:30N 09°16' W 079°55'0 0.8
2018-Feb-13 17:00N 09°16' W 079°55'0 0.7
2018-Feb-13 16:30N 09°15' W 079°55'1 2.5
2018-Feb-13 16:00N 09°14' W 079°55'3 5.6
2018-Feb-13 15:30N 09°12' W 079°54'4 8.9
2018-Feb-13 15:00N 09°10' W 079°50'479 9.4
2018-Feb-11 12:00N 09°48' W 087°54'   050 / 241011.010.8 25.022.026.7
Track history (hours):
 
Tides and Currents Weather Stations Pressure Air Temp Water Temp Dewpoint Dewpoint Depression Visibility Wind Speed Wind Dir Waves Ship Positions

Cosco Glory

Last reported at 2018-Feb-21 09:00 UTC. Time now 2018-Feb-21 09:10 UTC.
Position N 36°57' W 076°20'.

Length 366 m; draft 13.1 m.

Type: Ship (hazmat cat D). MMSI: 477795300.

Date/timePositionNaut miles runAvg speedWind from/ knotsBaromVisibWave heightAir tempDewpointWater temp
2018-Feb-21 09:00N 36°57' W 076°20'3 6.8
2018-Feb-21 08:30N 36°60' W 076°18'511.1
2018-Feb-21 08:00N 36°60' W 076°11'612.5
2018-Feb-21 07:30N 36°58' W 076°04'611.2
2018-Feb-21 07:00N 36°56' W 075°57'5 9.7
2018-Feb-21 06:30N 36°53' W 075°53'5 9.7
2018-Feb-21 06:00N 36°50' W 075°48'5 9.5
2018-Feb-21 05:30N 36°49' W 075°42'133 6.9
2018-Feb-20 10:16N 38°40' W 074°10'410.7
2018-Feb-20 09:54N 38°44' W 074°09'510.7
2018-Feb-20 09:27N 38°49' W 074°07'3210.7
2018-Feb-20 06:30N 39°19' W 073°56'610.5
2018-Feb-20 05:55N 39°25' W 073°53'1010.1
2018-Feb-20 04:54N 39°35' W 073°53'410.2
2018-Feb-20 04:29N 39°40' W 073°52'510.3
2018-Feb-20 03:59N 39°45' W 073°52'610.4
2018-Feb-20 03:25N 39°51' W 073°52'1110.7
2018-Feb-20 02:24N 40°01' W 073°50'1810.2
2018-Feb-20 00:35N 40°20' W 073°49'1 9.7
2018-Feb-20 00:27N 40°21' W 073°49'4 9.3
2018-Feb-19 23:59N 40°25' W 073°48'4 7.2
2018-Feb-19 23:30N 40°28' W 073°52'5 9.8
2018-Feb-19 23:00N 40°30' W 073°57'611.8
2018-Feb-19 22:30N 40°35' W 074°02'5 9.5
2018-Feb-19 22:01N 40°39' W 074°05'2 4.9
2018-Feb-19 21:30N 40°39' W 074°08'2 3.2
2018-Feb-19 21:00N 40°40' W 074°08'1 1.7
2018-Feb-19 20:30N 40°41' W 074°09'0 0.0
2018-Feb-19 20:00N 40°41' W 074°09'0 0.0
2018-Feb-19 19:27N 40°41' W 074°09'0 0.0
2018-Feb-19 19:00N 40°41' W 074°09'0 0.0
2018-Feb-19 18:30N 40°41' W 074°09'0 0.0
2018-Feb-19 18:00N 40°41' W 074°09'0 0.0
2018-Feb-19 17:30N 40°41' W 074°09'0 0.0
2018-Feb-19 17:00N 40°41' W 074°09'0 0.0
2018-Feb-19 16:30N 40°41' W 074°09'0 0.0
2018-Feb-19 16:00N 40°41' W 074°09'0 0.0
2018-Feb-19 15:30N 40°41' W 074°09'0 0.0
2018-Feb-19 14:57N 40°41' W 074°09'0 0.0
2018-Feb-19 14:30N 40°41' W 074°09'0 0.0
2018-Feb-19 14:00N 40°41' W 074°09'0 0.1
2018-Feb-19 13:29N 40°41' W 074°09'0 0.0
2018-Feb-19 12:59N 40°41' W 074°09'0 0.0
2018-Feb-19 12:29N 40°41' W 074°09'0 0.0
2018-Feb-19 11:59N 40°41' W 074°09'0 0.0
2018-Feb-19 11:29N 40°41' W 074°09'0 0.0
2018-Feb-19 10:59N 40°41' W 074°09'0 0.0
2018-Feb-19 10:29N 40°41' W 074°09'0 0.0
2018-Feb-19 09:59N 40°41' W 074°09'0 0.0
2018-Feb-19 09:28N 40°41' W 074°09'0 0.0
2018-Feb-19 08:59N 40°41' W 074°09'0 0.0
2018-Feb-19 08:23N 40°41' W 074°09'0 0.0
2018-Feb-19 07:58N 40°41' W 074°09'0 0.0
2018-Feb-19 07:29N 40°41' W 074°09'0 0.0
2018-Feb-19 06:58N 40°41' W 074°09'0 0.0
2018-Feb-19 06:26N 40°41' W 074°09'0 0.0
2018-Feb-19 05:59N 40°41' W 074°09'0 0.0
2018-Feb-19 05:28N 40°41' W 074°09'0 0.0
2018-Feb-19 04:59N 40°41' W 074°09'0 0.0
2018-Feb-19 04:29N 40°41' W 074°09'0 0.0
2018-Feb-19 03:59N 40°41' W 074°09'0 0.0
2018-Feb-19 03:29N 40°41' W 074°09'0 0.0
2018-Feb-19 02:55N 40°41' W 074°09'0 0.0
2018-Feb-19 02:29N 40°41' W 074°09'0 0.0
2018-Feb-19 01:55N 40°41' W 074°09'0 0.0
2018-Feb-19 01:29N 40°41' W 074°09'0 0.0
2018-Feb-19 00:58N 40°41' W 074°09'0 0.0
2018-Feb-19 00:29N 40°41' W 074°09'0 0.0
2018-Feb-18 23:59N 40°41' W 074°09'0 0.0
2018-Feb-18 23:29N 40°41' W 074°09'0 0.0
2018-Feb-18 22:59N 40°41' W 074°09'0 0.0
2018-Feb-18 22:28N 40°41' W 074°09'0 0.0
2018-Feb-18 21:58N 40°41' W 074°09'0 0.0
2018-Feb-18 21:29N 40°41' W 074°09'0 0.0
2018-Feb-18 20:58N 40°41' W 074°09'0 0.0
2018-Feb-18 20:29N 40°41' W 074°09'0 0.0
2018-Feb-18 19:52N 40°41' W 074°09'0 0.0
2018-Feb-18 19:26N 40°41' W 074°09'0 0.0
2018-Feb-18 18:55N 40°41' W 074°09'0 0.0
2018-Feb-18 18:29N 40°41' W 074°09'0 0.0
2018-Feb-18 17:59N 40°41' W 074°09'0 0.0
2018-Feb-18 17:29N 40°41' W 074°09'0 0.0
2018-Feb-18 16:58N 40°41' W 074°09'0 0.0
2018-Feb-18 16:29N 40°41' W 074°09'0 0.0
2018-Feb-18 15:59N 40°41' W 074°09'0 0.0
2018-Feb-18 15:29N 40°41' W 074°09'0 0.0
2018-Feb-18 14:58N 40°41' W 074°09'0 0.0
2018-Feb-18 14:26N 40°41' W 074°09'0 0.0
2018-Feb-18 13:59N 40°41' W 074°09'0 0.0
2018-Feb-18 13:29N 40°41' W 074°09'0 0.0
2018-Feb-18 12:58N 40°41' W 074°09'0 0.0
2018-Feb-18 12:29N 40°41' W 074°09'0 0.0
2018-Feb-18 11:55N 40°41' W 074°09'0 0.0
2018-Feb-18 11:29N 40°41' W 074°09'0 0.0
2018-Feb-18 10:59N 40°41' W 074°09'0 0.0
2018-Feb-18 10:29N 40°41' W 074°09'0 0.4
2018-Feb-18 10:01N 40°41' W 074°09'2 3.0
2018-Feb-18 09:30N 40°39' W 074°09'1 3.0
2018-Feb-18 09:00N 40°39' W 074°07'2 5.0
2018-Feb-18 08:30N 40°39' W 074°04'3 6.6
2018-Feb-18 08:01N 40°36' W 074°02'611.8
2018-Feb-18 07:30N 40°31' W 073°58'713.3
2018-Feb-18 07:00N 40°27' W 073°51'611.4
2018-Feb-18 06:30N 40°22' W 073°47'1 1.1
2018-Feb-18 05:59N 40°23' W 073°47'4 8.2
2018-Feb-18 05:29N 40°19' W 073°46'5 9.8
2018-Feb-18 04:58N 40°14' W 073°46'5 9.7
2018-Feb-18 04:28N 40°09' W 073°45'35715.9
2018-Feb-17 06:00N 34°12' W 073°30'22819.0 010 / 251019.0 5.4 19.011.825.0
2018-Feb-16 18:00N 30°24' W 073°24'71419.8 260 / 231022.010.8 25.020.526.0
2018-Feb-15 06:00N 18°36' W 075°06'25821.5 050 / 281019.0 5.4 25.018.830.0
2018-Feb-14 18:00N 14°42' W 077°00'21117.6 090 / 321017.0 5.4 27.019.330.0
2018-Feb-14 06:00N 11°36' W 078°42'14018.7 080 / 361014.0 5.4 26.019.930.0
2018-Feb-13 22:28N 09°32' W 079°50'510.1
2018-Feb-13 21:57N 09°29' W 079°53'1 3.2
2018-Feb-13 21:30N 09°28' W 079°54'4 8.0
2018-Feb-13 21:00N 09°24' W 079°55'4 8.6
2018-Feb-13 20:30N 09°19' W 079°55'3 5.4
2018-Feb-13 20:00N 09°17' W 079°55'0 0.4
2018-Feb-13 19:30N 09°17' W 079°55'0 0.5
2018-Feb-13 19:00N 09°16' W 079°55'0 0.0
2018-Feb-13 18:30N 09°16' W 079°55'0 0.5
2018-Feb-13 18:00N 09°16' W 079°55'0 0.0
2018-Feb-13 17:30N 09°16' W 079°55'0 0.8
2018-Feb-13 17:00N 09°16' W 079°55'0 0.7
2018-Feb-13 16:30N 09°15' W 079°55'1 2.5
2018-Feb-13 16:00N 09°14' W 079°55'3 5.6
2018-Feb-13 15:30N 09°12' W 079°54'4 8.9
2018-Feb-13 15:00N 09°10' W 079°50'479 9.4
2018-Feb-11 12:00N 09°48' W 087°54'   050 / 241011.010.8 25.022.026.7

Dump ship's entire track history